Time;durP1;ratioP1;P1;durP2;ratioP2;P2;SDS_P1;SDS_P2;PMS_P1;PMS_P2;Temp;Humidity;BMP_temperature;BMP_pressure;BME280_temperature;BME280_humidity;BME280_pressure;Samples;Min_cycle;Max_cycle;Signal;HPM_P1;HPM_P2
2023/01/19 00:00:32;;;;;;;;;;;;;;;;;;4996378;28;20363;-67
2023/01/19 00:02:58;;;;;;;;;;;;;;;;;;4995745;28;19944;-67
2023/01/19 00:05:24;;;;;;;;;;;;;;;;;;4995969;28;20280;-68
2023/01/19 00:07:50;;;;;;;;;;;;;;;;;;4995633;28;19997;-67
2023/01/19 00:10:16;;;;;;;;;;;;;;;;;;4995634;28;19951;-67
2023/01/19 00:12:42;;;;;;;;;;;;;;;;;;4995766;28;20031;-67
2023/01/19 00:15:08;;;;;;;;;;;;;;;;;;4995541;28;19950;-67
2023/01/19 00:17:34;;;;;;;;;;;;;;;;;;4995452;28;19953;-67
2023/01/19 00:20:00;;;;;;;;;;;;;;;;;;4995729;28;20039;-68
2023/01/19 00:22:26;;;;;;;;;;;;;;;;;;4995379;28;20395;-67
2023/01/19 00:24:51;;;;;;;;;;;;;;;;;;4995359;28;19952;-67
2023/01/19 00:27:19;;;;;;;;;;;;;;;;;;4994502;28;21425;-67
2023/01/19 00:29:45;;;;;;;;;;;;;;;;;;4995226;28;20006;-67
2023/01/19 00:32:11;;;;;;;;;;;;;;;;;;4995134;28;20418;-67
2023/01/19 00:34:41;;;;;;;;;;;;;;;;;;4995421;28;19943;-67
2023/01/19 00:37:07;;;;;;;;;;;;;;;;;;4995088;28;19994;-67
2023/01/19 00:39:33;;;;;;;;;;;;;;;;;;4995626;28;20313;-68
2023/01/19 00:44:43;;;;;;;;;;;;;;;;;;4995018;28;19954;-67
2023/01/19 00:47:09;;;;;;;;;;;;;;;;;;4993581;28;19972;-67
2023/01/19 00:49:35;;;;;;;;;;;;;;;;;;4994221;28;19986;-67
2023/01/19 00:52:01;;;;;;;;;;;;;;;;;;4994807;28;19983;-67
2023/01/19 00:54:27;;;;;;;;;;;;;;;;;;4994817;28;19943;-67
2023/01/19 00:56:52;;;;;;;;;;;;;;;;;;4994799;28;20015;-68
2023/01/19 00:59:18;;;;;;;;;;;;;;;;;;4995340;28;20516;-67
2023/01/19 01:01:44;;;;;;;;;;;;;;;;;;4994719;28;20294;-67
2023/01/19 01:04:12;;;;;;;;;;;;;;;;;;4994695;28;20057;-67
2023/01/19 01:06:38;;;;;;;;;;;;;;;;;;4994956;28;20034;-67
2023/01/19 01:09:10;;;;;;;;;;;;;;;;;;4994883;28;19996;-67
2023/01/19 01:11:36;;;;;;;;;;;;;;;;;;4995138;28;20021;-67
2023/01/19 01:14:02;;;;;;;;;;;;;;;;;;4994544;28;20406;-68
2023/01/19 01:16:28;;;;;;;;;;;;;;;;;;4994805;28;19951;-67
2023/01/19 01:18:54;;;;;;;;;;;;;;;;;;4994519;28;20418;-68
2023/01/19 01:21:19;;;;;;;;;;;;;;;;;;4994450;28;19945;-67
2023/01/19 01:23:45;;;;;;;;;;;;;;;;;;4994449;28;20324;-67
2023/01/19 01:26:11;;;;;;;;;;;;;;;;;;4994415;28;19950;-67
2023/01/19 01:28:37;;;;;;;;;;;;;;;;;;4994662;28;19948;-68
2023/01/19 01:31:03;;;;;;;;;;;;;;;;;;4994383;28;19980;-67
2023/01/19 01:33:29;;;;;;;;;;;;;;;;;;4994268;28;19978;-67
2023/01/19 01:35:55;;;;;;;;;;;;;;;;;;4994873;28;19946;-67
2023/01/19 01:38:21;;;;;;;;;;;;;;;;;;4994334;28;19953;-67
2023/01/19 01:40:47;;;;;;;;;;;;;;;;;;4994265;28;19993;-67
2023/01/19 01:43:12;;;;;;;;;;;;;;;;;;4994813;28;19951;-67
2023/01/19 01:45:39;;;;;;;;;;;;;;;;;;4994209;28;19973;-67
2023/01/19 01:48:04;;;;;;;;;;;;;;;;;;4994101;28;20011;-67
2023/01/19 01:50:30;;;;;;;;;;;;;;;;;;4993910;28;20028;-67
2023/01/19 01:52:56;;;;;;;;;;;;;;;;;;4994090;28;19969;-67
2023/01/19 01:55:22;;;;;;;;;;;;;;;;;;4994710;28;19948;-67
2023/01/19 01:57:48;;;;;;;;;;;;;;;;;;4994416;28;20004;-67
2023/01/19 02:00:14;;;;;;;;;;;;;;;;;;4994169;28;19951;-67
2023/01/19 02:02:53;;;;;;;;;;;;;;;;;;4998281;28;19952;-67
2023/01/19 02:05:19;;;;;;;;;;;;;;;;;;4997918;28;19944;-68
2023/01/19 02:13:21;;;;;;;;;;;;;;;;;;4997806;28;20478;-67
2023/01/19 02:15:47;;;;;;;;;;;;;;;;;;4998160;28;20318;-67
2023/01/19 02:18:13;;;;;;;;;;;;;;;;;;4997678;28;19950;-67
2023/01/19 02:20:39;;;;;;;;;;;;;;;;;;4998229;28;20397;-68
2023/01/19 02:23:05;;;;;;;;;;;;;;;;;;4997592;28;20390;-67
2023/01/19 02:25:30;;;;;;;;;;;;;;;;;;4997874;28;20343;-68
2023/01/19 02:27:56;;;;;;;;;;;;;;;;;;4997519;28;19966;-67
2023/01/19 02:30:23;;;;;;;;;;;;;;;;;;4997511;28;19947;-67
2023/01/19 02:32:48;;;;;;;;;;;;;;;;;;4997356;28;19977;-68
2023/01/19 02:35:14;;;;;;;;;;;;;;;;;;4997751;28;19945;-67
2023/01/19 02:37:40;;;;;;;;;;;;;;;;;;4997371;28;20007;-68
2023/01/19 02:40:06;;;;;;;;;;;;;;;;;;4997281;28;20003;-67
2023/01/19 02:42:32;;;;;;;;;;;;;;;;;;4997551;28;19955;-68
2023/01/19 02:44:58;;;;;;;;;;;;;;;;;;4997510;28;19949;-67
2023/01/19 02:47:24;;;;;;;;;;;;;;;;;;4995907;28;20398;-67
2023/01/19 02:49:50;;;;;;;;;;;;;;;;;;4997299;28;20036;-67
2023/01/19 02:52:16;;;;;;;;;;;;;;;;;;4997045;28;20065;-68
2023/01/19 02:54:42;;;;;;;;;;;;;;;;;;4997636;28;20346;-68
2023/01/19 02:57:08;;;;;;;;;;;;;;;;;;4997027;28;19973;-68
2023/01/19 02:59:35;;;;;;;;;;;;;;;;;;4997021;28;19951;-68
2023/01/19 03:02:02;;;;;;;;;;;;;;;;;;4996956;28;20005;-67
2023/01/19 03:04:28;;;;;;;;;;;;;;;;;;4996935;28;20441;-67
2023/01/19 03:06:54;;;;;;;;;;;;;;;;;;4997424;28;19949;-67
2023/01/19 03:09:20;;;;;;;;;;;;;;;;;;4997095;28;19950;-68
2023/01/19 03:11:46;;;;;;;;;;;;;;;;;;4996270;28;19946;-67
2023/01/19 03:14:12;;;;;;;;;;;;;;;;;;4996152;28;19951;-67
2023/01/19 03:16:38;;;;;;;;;;;;;;;;;;4996943;28;20004;-68
2023/01/19 03:19:04;;;;;;;;;;;;;;;;;;4996590;28;19949;-67
2023/01/19 03:21:30;;;;;;;;;;;;;;;;;;4996583;28;19957;-67
2023/01/19 03:23:55;;;;;;;;;;;;;;;;;;4996569;28;20046;-67
2023/01/19 03:26:21;;;;;;;;;;;;;;;;;;4997058;28;20417;-67
2023/01/19 03:28:47;;;;;;;;;;;;;;;;;;4996704;28;19941;-68
2023/01/19 03:31:13;;;;;;;;;;;;;;;;;;4996362;28;20424;-67
2023/01/19 03:33:39;;;;;;;;;;;;;;;;;;4996558;28;20064;-67
2023/01/19 03:36:05;;;;;;;;;;;;;;;;;;4996580;28;20468;-67
2023/01/19 03:38:31;;;;;;;;;;;;;;;;;;4996580;28;19958;-67
2023/01/19 03:40:57;;;;;;;;;;;;;;;;;;4994909;28;19960;-67
2023/01/19 03:43:23;;;;;;;;;;;;;;;;;;4996194;28;19953;-67
2023/01/19 03:45:49;;;;;;;;;;;;;;;;;;4996388;28;19950;-67
2023/01/19 03:48:15;;;;;;;;;;;;;;;;;;4996008;28;19965;-67
2023/01/19 03:50:40;;;;;;;;;;;;;;;;;;4995653;28;19988;-67
2023/01/19 03:53:06;;;;;;;;;;;;;;;;;;4995971;28;19961;-67
2023/01/19 03:55:33;;;;;;;;;;;;;;;;;;4996220;28;19953;-67
2023/01/19 03:57:59;;;;;;;;;;;;;;;;;;4995883;28;19956;-67
2023/01/19 04:00:24;;;;;;;;;;;;;;;;;;4995860;28;19949;-67
2023/01/19 04:02:50;;;;;;;;;;;;;;;;;;4995818;28;20077;-67
2023/01/19 04:05:17;;;;;;;;;;;;;;;;;;4996033;28;19944;-67
2023/01/19 04:07:43;;;;;;;;;;;;;;;;;;4995700;28;20410;-67
2023/01/19 04:10:11;;;;;;;;;;;;;;;;;;4996211;28;20032;-68
2023/01/19 04:12:37;;;;;;;;;;;;;;;;;;4995522;28;20027;-68
2023/01/19 04:15:03;;;;;;;;;;;;;;;;;;4995566;28;19945;-67
2023/01/19 04:17:29;;;;;;;;;;;;;;;;;;4995801;28;20325;-67
2023/01/19 04:19:55;;;;;;;;;;;;;;;;;;4995432;28;19949;-67
2023/01/19 04:22:21;;;;;;;;;;;;;;;;;;4995419;28;20010;-67
2023/01/19 04:24:47;;;;;;;;;;;;;;;;;;4995772;28;19997;-68
2023/01/19 04:27:15;;;;;;;;;;;;;;;;;;4995329;28;19949;-67
2023/01/19 04:29:41;;;;;;;;;;;;;;;;;;4995274;28;19986;-67
2023/01/19 04:32:07;;;;;;;;;;;;;;;;;;4995171;28;20485;-67
2023/01/19 04:34:33;;;;;;;;;;;;;;;;;;4995254;28;19948;-67
2023/01/19 04:36:58;;;;;;;;;;;;;;;;;;4995441;28;19948;-67
2023/01/19 04:39:24;;;;;;;;;;;;;;;;;;4995073;28;19956;-67
2023/01/19 04:41:51;;;;;;;;;;;;;;;;;;4995089;28;19989;-68
2023/01/19 04:44:17;;;;;;;;;;;;;;;;;;4995077;28;19972;-67
2023/01/19 04:46:43;;;;;;;;;;;;;;;;;;4994938;28;20403;-67
2023/01/19 04:49:08;;;;;;;;;;;;;;;;;;4995192;28;20453;-67
2023/01/19 04:51:34;;;;;;;;;;;;;;;;;;4995490;28;19942;-68
2023/01/19 04:54:01;;;;;;;;;;;;;;;;;;4994783;28;20083;-67
2023/01/19 04:56:27;;;;;;;;;;;;;;;;;;4994845;28;20332;-67
2023/01/19 04:58:53;;;;;;;;;;;;;;;;;;4995345;28;19941;-67
2023/01/19 05:01:19;;;;;;;;;;;;;;;;;;4994806;28;19950;-67
2023/01/19 05:03:44;;;;;;;;;;;;;;;;;;4995282;28;19950;-67
2023/01/19 05:06:10;;;;;;;;;;;;;;;;;;4994667;28;20356;-67
2023/01/19 05:08:36;;;;;;;;;;;;;;;;;;4994951;28;20381;-67
2023/01/19 05:11:02;;;;;;;;;;;;;;;;;;4994868;28;19988;-67
2023/01/19 05:13:29;;;;;;;;;;;;;;;;;;4994519;28;19976;-67
2023/01/19 05:15:55;;;;;;;;;;;;;;;;;;4993071;28;19961;-67
2023/01/19 05:18:21;;;;;;;;;;;;;;;;;;4995078;28;20313;-68
2023/01/19 05:20:47;;;;;;;;;;;;;;;;;;4994469;28;19994;-67
2023/01/19 05:23:13;;;;;;;;;;;;;;;;;;4994465;28;20026;-67
2023/01/19 05:25:39;;;;;;;;;;;;;;;;;;4994428;28;19954;-67
2023/01/19 05:28:05;;;;;;;;;;;;;;;;;;4994404;28;19937;-67
2023/01/19 05:30:30;;;;;;;;;;;;;;;;;;4994932;28;20444;-67
2023/01/19 05:32:56;;;;;;;;;;;;;;;;;;4994550;28;19971;-67
2023/01/19 05:35:22;;;;;;;;;;;;;;;;;;4993776;28;20314;-67
2023/01/19 05:37:48;;;;;;;;;;;;;;;;;;4994565;28;19939;-67
2023/01/19 05:40:14;;;;;;;;;;;;;;;;;;4994287;28;19948;-67
2023/01/19 05:42:40;;;;;;;;;;;;;;;;;;4994257;28;19954;-67
2023/01/19 05:45:06;;;;;;;;;;;;;;;;;;4994516;28;19997;-68
2023/01/19 05:47:32;;;;;;;;;;;;;;;;;;4994138;28;20097;-67
2023/01/19 05:49:58;;;;;;;;;;;;;;;;;;4994155;28;20004;-67
2023/01/19 05:52:24;;;;;;;;;;;;;;;;;;4994401;28;19968;-67
2023/01/19 05:54:50;;;;;;;;;;;;;;;;;;4994166;28;20329;-67
2023/01/19 05:57:16;;;;;;;;;;;;;;;;;;4994140;28;20033;-67
2023/01/19 05:59:42;;;;;;;;;;;;;;;;;;4994135;28;20432;-68
2023/01/19 06:02:08;;;;;;;;;;;;;;;;;;4994131;28;19941;-67
2023/01/19 06:04:34;;;;;;;;;;;;;;;;;;4994083;28;19948;-67
2023/01/19 06:07:00;;;;;;;;;;;;;;;;;;4994327;28;20402;-68
2023/01/19 06:09:26;;;;;;;;;;;;;;;;;;4994059;28;19988;-67
2023/01/19 06:11:56;;;;;;;;;;;;;;;;;;4994268;28;19950;-67
2023/01/19 06:14:22;;;;;;;;;;;;;;;;;;4994254;28;19946;-67
2023/01/19 06:16:48;;;;;;;;;;;;;;;;;;4994511;28;20003;-67
2023/01/19 06:19:14;;;;;;;;;;;;;;;;;;4993907;28;19994;-68
2023/01/19 06:21:40;;;;;;;;;;;;;;;;;;4994212;28;19943;-67
2023/01/19 06:24:06;;;;;;;;;;;;;;;;;;4994178;28;19946;-67
2023/01/19 06:26:32;;;;;;;;;;;;;;;;;;4993911;28;19941;-67
2023/01/19 06:28:57;;;;;;;;;;;;;;;;;;4993849;28;19952;-67
2023/01/19 06:31:23;;;;;;;;;;;;;;;;;;4994175;28;20031;-67
2023/01/19 06:33:49;;;;;;;;;;;;;;;;;;4993818;28;19973;-67
2023/01/19 06:36:15;;;;;;;;;;;;;;;;;;4993861;28;19971;-67
2023/01/19 06:38:41;;;;;;;;;;;;;;;;;;4993802;28;20042;-67
2023/01/19 06:41:07;;;;;;;;;;;;;;;;;;4994318;28;20382;-67
2023/01/19 06:43:33;;;;;;;;;;;;;;;;;;4994531;28;19942;-67
2023/01/19 06:46:02;;;;;;;;;;;;;;;;;;4993695;28;19946;-67
2023/01/19 06:48:28;;;;;;;;;;;;;;;;;;4996050;28;19967;-68
2023/01/19 06:50:54;;;;;;;;;;;;;;;;;;4996719;28;19982;-67
2023/01/19 06:53:21;;;;;;;;;;;;;;;;;;4997056;28;20500;-67
2023/01/19 06:55:47;;;;;;;;;;;;;;;;;;4997088;28;19981;-67
2023/01/19 06:58:13;;;;;;;;;;;;;;;;;;4997305;28;19956;-68
2023/01/19 07:00:38;;;;;;;;;;;;;;;;;;4997017;28;20501;-67
2023/01/19 07:03:05;;;;;;;;;;;;;;;;;;4996981;28;20439;-67
2023/01/19 07:05:31;;;;;;;;;;;;;;;;;;4996896;28;20449;-68
2023/01/19 07:07:56;;;;;;;;;;;;;;;;;;4996843;28;19955;-68
2023/01/19 07:10:22;;;;;;;;;;;;;;;;;;4997072;28;19956;-67
2023/01/19 07:12:48;;;;;;;;;;;;;;;;;;4996676;28;19976;-68
2023/01/19 07:15:14;;;;;;;;;;;;;;;;;;4996735;28;19976;-68
2023/01/19 07:17:41;;;;;;;;;;;;;;;;;;4997204;28;20295;-67
2023/01/19 07:20:07;;;;;;;;;;;;;;;;;;4996667;28;19946;-68
2023/01/19 07:22:32;;;;;;;;;;;;;;;;;;4996873;28;20035;-67
2023/01/19 07:24:58;;;;;;;;;;;;;;;;;;4996804;28;19938;-67
2023/01/19 07:27:26;;;;;;;;;;;;;;;;;;4996543;28;19955;-67
2023/01/19 07:29:52;;;;;;;;;;;;;;;;;;4996686;28;19948;-67
2023/01/19 07:32:18;;;;;;;;;;;;;;;;;;4996337;28;20093;-67
2023/01/19 07:34:44;;;;;;;;;;;;;;;;;;4996385;28;19973;-68
2023/01/19 07:37:10;;;;;;;;;;;;;;;;;;4996339;28;19954;-67
2023/01/19 07:39:36;;;;;;;;;;;;;;;;;;4996565;28;19947;-67
2023/01/19 07:42:01;;;;;;;;;;;;;;;;;;4996206;28;20322;-67
2023/01/19 07:44:27;;;;;;;;;;;;;;;;;;4996200;28;19948;-67
2023/01/19 07:46:53;;;;;;;;;;;;;;;;;;4996100;28;20045;-68
2023/01/19 07:49:19;;;;;;;;;;;;;;;;;;4995934;28;19979;-67
2023/01/19 07:51:45;;;;;;;;;;;;;;;;;;4996293;28;19957;-68
2023/01/19 07:54:11;;;;;;;;;;;;;;;;;;4995963;28;20476;-68
2023/01/19 07:56:37;;;;;;;;;;;;;;;;;;4995952;28;19946;-67
2023/01/19 07:59:03;;;;;;;;;;;;;;;;;;4995401;28;19953;-68
2023/01/19 08:01:30;;;;;;;;;;;;;;;;;;4996394;28;19950;-67
2023/01/19 08:03:56;;;;;;;;;;;;;;;;;;4995839;28;20071;-67
2023/01/19 08:06:21;;;;;;;;;;;;;;;;;;4994512;28;20472;-67
2023/01/19 08:08:47;;;;;;;;;;;;;;;;;;4996249;28;19955;-67
2023/01/19 08:11:14;;;;;;;;;;;;;;;;;;4995661;28;19987;-68
2023/01/19 08:13:40;;;;;;;;;;;;;;;;;;4995786;28;19968;-68
2023/01/19 08:16:05;;;;;;;;;;;;;;;;;;4995567;28;19948;-67
2023/01/19 08:18:31;;;;;;;;;;;;;;;;;;4996104;28;20401;-67
2023/01/19 08:20:57;;;;;;;;;;;;;;;;;;4995739;28;19939;-67
2023/01/19 08:23:23;;;;;;;;;;;;;;;;;;4995452;28;19996;-67
2023/01/19 08:25:49;;;;;;;;;;;;;;;;;;4995432;28;19976;-67
2023/01/19 08:28:15;;;;;;;;;;;;;;;;;;4995369;28;19949;-67
2023/01/19 08:30:43;;;;;;;;;;;;;;;;;;4995330;28;19953;-67
2023/01/19 08:33:09;;;;;;;;;;;;;;;;;;4995196;28;19969;-67
2023/01/19 08:35:35;;;;;;;;;;;;;;;;;;4995173;28;20004;-67
2023/01/19 08:38:01;;;;;;;;;;;;;;;;;;4995158;28;20333;-68
2023/01/19 08:40:28;;;;;;;;;;;;;;;;;;4995660;28;19951;-68
2023/01/19 08:42:56;;;;;;;;;;;;;;;;;;4995070;28;19944;-67
2023/01/19 08:45:22;;;;;;;;;;;;;;;;;;4993805;28;19953;-67
2023/01/19 08:47:48;;;;;;;;;;;;;;;;;;4994969;28;19968;-67
2023/01/19 08:50:14;;;;;;;;;;;;;;;;;;4994959;28;20033;-67
2023/01/19 08:52:40;;;;;;;;;;;;;;;;;;4994870;28;20335;-68
2023/01/19 08:55:05;;;;;;;;;;;;;;;;;;4994916;28;19957;-67
2023/01/19 08:57:31;;;;;;;;;;;;;;;;;;4995145;28;19953;-68
2023/01/19 08:59:57;;;;;;;;;;;;;;;;;;4994821;28;20397;-67
2023/01/19 09:02:23;;;;;;;;;;;;;;;;;;4995302;28;20001;-67
2023/01/19 09:04:49;;;;;;;;;;;;;;;;;;4994737;28;19987;-68
2023/01/19 09:07:16;;;;;;;;;;;;;;;;;;4994714;28;19949;-67
2023/01/19 09:09:42;;;;;;;;;;;;;;;;;;4994385;28;19954;-67
2023/01/19 09:12:08;;;;;;;;;;;;;;;;;;4994390;28;20040;-67
2023/01/19 09:14:34;;;;;;;;;;;;;;;;;;4994609;28;20489;-67
2023/01/19 09:17:00;;;;;;;;;;;;;;;;;;4994596;28;19952;-67
2023/01/19 09:19:25;;;;;;;;;;;;;;;;;;4995033;28;20349;-67
2023/01/19 09:21:51;;;;;;;;;;;;;;;;;;4994464;28;19947;-67
2023/01/19 09:24:17;;;;;;;;;;;;;;;;;;4994987;28;19953;-67
2023/01/19 09:26:43;;;;;;;;;;;;;;;;;;4994664;28;19949;-67
2023/01/19 09:29:09;;;;;;;;;;;;;;;;;;4994654;28;19957;-67
2023/01/19 09:31:35;;;;;;;;;;;;;;;;;;4994397;28;19956;-67
2023/01/19 09:34:01;;;;;;;;;;;;;;;;;;4994573;28;19973;-67
2023/01/19 09:36:27;;;;;;;;;;;;;;;;;;4994300;28;19948;-67
2023/01/19 09:38:53;;;;;;;;;;;;;;;;;;4994280;28;19947;-67
2023/01/19 09:41:19;;;;;;;;;;;;;;;;;;4994779;28;19962;-67
2023/01/19 09:43:46;;;;;;;;;;;;;;;;;;4994250;28;19947;-67
2023/01/19 09:46:13;;;;;;;;;;;;;;;;;;4994816;28;19955;-67
2023/01/19 09:48:38;;;;;;;;;;;;;;;;;;4993987;28;20511;-67
2023/01/19 09:51:04;;;;;;;;;;;;;;;;;;4994198;28;19942;-67
2023/01/19 09:53:31;;;;;;;;;;;;;;;;;;4994396;28;19995;-67
2023/01/19 09:55:57;;;;;;;;;;;;;;;;;;4994438;28;19937;-67
2023/01/19 09:58:23;;;;;;;;;;;;;;;;;;4994680;28;19955;-67
2023/01/19 10:00:49;;;;;;;;;;;;;;;;;;4994141;28;19949;-67
2023/01/19 10:03:15;;;;;;;;;;;;;;;;;;4994166;28;20329;-67
2023/01/19 10:05:41;;;;;;;;;;;;;;;;;;4994856;28;20065;-67
2023/01/19 10:08:07;;;;;;;;;;;;;;;;;;4994540;28;19975;-67
2023/01/19 10:10:33;;;;;;;;;;;;;;;;;;4994020;28;19952;-69
2023/01/19 10:12:59;;;;;;;;;;;;;;;;;;4994674;28;20316;-69
2023/01/19 10:15:25;;;;;;;;;;;;;;;;;;4994026;28;20435;-68
2023/01/19 10:17:51;;;;;;;;;;;;;;;;;;4994578;28;19952;-69
2023/01/19 10:20:17;;;;;;;;;;;;;;;;;;4994078;28;19949;-68
2023/01/19 10:22:43;;;;;;;;;;;;;;;;;;4996330;28;20012;-68
2023/01/19 10:25:09;;;;;;;;;;;;;;;;;;4997937;28;19950;-69
2023/01/19 10:27:36;;;;;;;;;;;;;;;;;;4997605;28;19938;-68
2023/01/19 10:30:02;;;;;;;;;;;;;;;;;;4997595;28;19987;-68
2023/01/19 10:32:29;;;;;;;;;;;;;;;;;;4997498;28;19963;-75
2023/01/19 10:34:56;;;;;;;;;;;;;;;;;;4997763;28;19973;-71
2023/01/19 10:37:22;;;;;;;;;;;;;;;;;;4996223;28;20371;-67
2023/01/19 10:39:48;;;;;;;;;;;;;;;;;;4997283;28;20000;-67
2023/01/19 10:42:14;;;;;;;;;;;;;;;;;;4997309;28;19953;-68
2023/01/19 10:44:40;;;;;;;;;;;;;;;;;;4997887;28;20374;-67
2023/01/19 10:47:06;;;;;;;;;;;;;;;;;;4997467;28;19964;-68
2023/01/19 10:49:32;;;;;;;;;;;;;;;;;;4997087;28;20357;-68
2023/01/19 10:51:58;;;;;;;;;;;;;;;;;;4997144;28;19998;-68
2023/01/19 10:54:24;;;;;;;;;;;;;;;;;;4997416;28;19953;-68
2023/01/19 10:56:50;;;;;;;;;;;;;;;;;;4997385;28;19949;-67
2023/01/19 10:59:16;;;;;;;;;;;;;;;;;;4997105;28;20381;-67
2023/01/19 11:01:42;;;;;;;;;;;;;;;;;;4997046;28;19960;-71
2023/01/19 11:04:08;;;;;;;;;;;;;;;;;;4996958;28;19972;-69
2023/01/19 11:06:34;;;;;;;;;;;;;;;;;;4996953;28;19942;-69
2023/01/19 11:09:00;;;;;;;;;;;;;;;;;;4997109;28;20408;-70
2023/01/19 11:11:26;;;;;;;;;;;;;;;;;;4997118;28;19949;-70
2023/01/19 11:13:52;;;;;;;;;;;;;;;;;;4996695;28;19972;-69
2023/01/19 11:16:18;;;;;;;;;;;;;;;;;;4997210;28;19948;-70
2023/01/19 11:18:45;;;;;;;;;;;;;;;;;;4995179;28;20070;-69
2023/01/19 11:21:11;;;;;;;;;;;;;;;;;;4996635;28;19951;-70
2023/01/19 11:23:41;;;;;;;;;;;;;;;;;;4996858;28;19947;-70
2023/01/19 11:26:07;;;;;;;;;;;;;;;;;;4996535;28;19950;-70
2023/01/19 11:28:33;;;;;;;;;;;;;;;;;;4996515;28;19952;-70
2023/01/19 11:30:59;;;;;;;;;;;;;;;;;;4996753;28;19950;-69
2023/01/19 11:33:25;;;;;;;;;;;;;;;;;;4995515;28;20411;-70
2023/01/19 11:35:51;;;;;;;;;;;;;;;;;;4997046;28;20025;-69
2023/01/19 11:38:17;;;;;;;;;;;;;;;;;;4996339;28;19987;-69
2023/01/19 11:40:43;;;;;;;;;;;;;;;;;;4996536;28;19941;-70
2023/01/19 11:43:08;;;;;;;;;;;;;;;;;;4996295;28;19954;-69
2023/01/19 11:45:34;;;;;;;;;;;;;;;;;;4996230;28;20394;-70
2023/01/19 11:48:00;;;;;;;;;;;;;;;;;;4996088;28;20062;-69
2023/01/19 11:50:26;;;;;;;;;;;;;;;;;;4995696;28;19978;-69
2023/01/19 11:52:52;;;;;;;;;;;;;;;;;;4995854;28;19969;-69
2023/01/19 11:55:18;;;;;;;;;;;;;;;;;;4994776;28;19942;-69
2023/01/19 11:57:44;;;;;;;;;;;;;;;;;;4995976;28;19986;-70
2023/01/19 12:00:10;;;;;;;;;;;;;;;;;;4996484;28;19949;-70
2023/01/19 12:02:36;;;;;;;;;;;;;;;;;;4996116;28;19951;-70
2023/01/19 12:05:02;;;;;;;;;;;;;;;;;;4995819;28;20536;-69
2023/01/19 12:07:28;;;;;;;;;;;;;;;;;;4995789;28;19985;-69
2023/01/19 12:09:54;;;;;;;;;;;;;;;;;;4996000;28;19949;-70
2023/01/19 12:12:23;;;;;;;;;;;;;;;;;;4994383;28;19953;-70
2023/01/19 12:14:49;;;;;;;;;;;;;;;;;;4995684;28;19947;-69
2023/01/19 12:17:14;;;;;;;;;;;;;;;;;;4995878;28;19947;-69
2023/01/19 12:19:40;;;;;;;;;;;;;;;;;;4995843;28;19986;-70
2023/01/19 12:22:06;;;;;;;;;;;;;;;;;;4995512;28;19940;-70
2023/01/19 12:24:32;;;;;;;;;;;;;;;;;;4995724;28;20041;-69
2023/01/19 12:26:58;;;;;;;;;;;;;;;;;;4995441;28;20317;-70
2023/01/19 12:29:24;;;;;;;;;;;;;;;;;;4995376;28;19949;-70
2023/01/19 12:31:50;;;;;;;;;;;;;;;;;;4995635;28;19956;-70
2023/01/19 12:34:16;;;;;;;;;;;;;;;;;;4995226;28;19970;-70
2023/01/19 12:36:42;;;;;;;;;;;;;;;;;;4995790;28;20312;-70
2023/01/19 12:39:08;;;;;;;;;;;;;;;;;;4995236;28;19948;-70
2023/01/19 12:41:34;;;;;;;;;;;;;;;;;;4995172;28;20317;-70
2023/01/19 12:44:00;;;;;;;;;;;;;;;;;;4993844;28;19953;-69
2023/01/19 12:46:26;;;;;;;;;;;;;;;;;;4995160;28;19980;-70
2023/01/19 12:48:52;;;;;;;;;;;;;;;;;;4994851;28;19958;-69
2023/01/19 12:51:18;;;;;;;;;;;;;;;;;;4995289;28;19941;-69
2023/01/19 12:53:43;;;;;;;;;;;;;;;;;;4995142;28;19957;-69
2023/01/19 12:56:09;;;;;;;;;;;;;;;;;;4994953;28;19956;-69
2023/01/19 12:58:35;;;;;;;;;;;;;;;;;;4995414;28;20406;-70
2023/01/19 13:01:01;;;;;;;;;;;;;;;;;;4995094;28;20047;-69
2023/01/19 13:03:28;;;;;;;;;;;;;;;;;;4994791;28;20445;-70
2023/01/19 13:05:54;;;;;;;;;;;;;;;;;;4990576;28;19955;-72
2023/01/19 13:08:20;;;;;;;;;;;;;;;;;;4985651;28;20342;-75
2023/01/19 13:10:46;;;;;;;;;;;;;;;;;;4979445;28;19989;-74
2023/01/19 13:13:12;;;;;;;;;;;;;;;;;;4992465;28;19970;-72
2023/01/19 13:15:38;;;;;;;;;;;;;;;;;;4992827;28;19952;-73
2023/01/19 13:18:04;;;;;;;;;;;;;;;;;;4993862;28;20313;-73
2023/01/19 13:20:30;;;;;;;;;;;;;;;;;;4990663;28;19960;-74
2023/01/19 13:22:55;;;;;;;;;;;;;;;;;;4986351;28;19947;-71
2023/01/19 13:25:21;;;;;;;;;;;;;;;;;;4989449;28;19954;-74
2023/01/19 13:27:47;;;;;;;;;;;;;;;;;;4983462;28;20000;-72
2023/01/19 13:30:13;;;;;;;;;;;;;;;;;;4974937;28;19940;-73
2023/01/19 13:32:39;;;;;;;;;;;;;;;;;;4975180;28;20011;-71
2023/01/19 13:35:05;;;;;;;;;;;;;;;;;;4980973;28;20401;-74
2023/01/19 13:37:31;;;;;;;;;;;;;;;;;;4990093;28;19999;-72
2023/01/19 13:39:57;;;;;;;;;;;;;;;;;;4985420;28;20368;-73
2023/01/19 13:42:23;;;;;;;;;;;;;;;;;;4975121;28;19949;-72
2023/01/19 13:44:51;;;;;;;;;;;;;;;;;;4987522;28;19954;-74
2023/01/19 13:47:17;;;;;;;;;;;;;;;;;;4992795;28;19969;-71
2023/01/19 13:49:43;;;;;;;;;;;;;;;;;;4993764;28;19985;-71
2023/01/19 13:52:09;;;;;;;;;;;;;;;;;;4993445;28;20411;-72
2023/01/19 13:54:35;;;;;;;;;;;;;;;;;;4986559;28;20071;-73
2023/01/19 13:57:01;;;;;;;;;;;;;;;;;;4989065;28;19955;-74
2023/01/19 13:59:27;;;;;;;;;;;;;;;;;;4998602;28;19955;-71
2023/01/19 14:01:53;;;;;;;;;;;;;;;;;;4998366;28;19947;-72
2023/01/19 14:04:18;;;;;;;;;;;;;;;;;;4991509;28;19957;-74
2023/01/19 14:06:44;;;;;;;;;;;;;;;;;;4981791;28;20014;-74
2023/01/19 14:09:10;;;;;;;;;;;;;;;;;;4978929;28;19939;-77
2023/01/19 14:11:36;;;;;;;;;;;;;;;;;;4977583;28;20382;-72
2023/01/19 14:14:02;;;;;;;;;;;;;;;;;;4980148;28;19972;-72
2023/01/19 14:16:28;;;;;;;;;;;;;;;;;;4978726;28;19952;-74
2023/01/19 14:18:54;;;;;;;;;;;;;;;;;;4977040;28;20350;-75
2023/01/19 14:21:20;;;;;;;;;;;;;;;;;;4978541;28;20406;-72
2023/01/19 14:23:46;;;;;;;;;;;;;;;;;;4995029;28;20040;-71
2023/01/19 14:26:12;;;;;;;;;;;;;;;;;;4996725;28;19959;-73
2023/01/19 14:28:38;;;;;;;;;;;;;;;;;;4996341;28;19959;-71
2023/01/19 14:31:04;;;;;;;;;;;;;;;;;;4998079;28;20334;-72
2023/01/19 14:33:30;;;;;;;;;;;;;;;;;;4997041;28;19977;-71
2023/01/19 14:35:55;;;;;;;;;;;;;;;;;;4997477;28;19941;-72
2023/01/19 14:38:21;;;;;;;;;;;;;;;;;;4997984;28;20455;-74
2023/01/19 14:40:47;;;;;;;;;;;;;;;;;;4996321;28;19957;-72
2023/01/19 14:43:13;;;;;;;;;;;;;;;;;;4997908;28;20328;-78
2023/01/19 14:45:40;;;;;;;;;;;;;;;;;;4996871;28;20005;-71
2023/01/19 14:48:06;;;;;;;;;;;;;;;;;;4997249;28;19960;-75
2023/01/19 14:50:32;;;;;;;;;;;;;;;;;;4991056;28;19990;-75
2023/01/19 14:52:57;;;;;;;;;;;;;;;;;;4998066;28;19969;-74
2023/01/19 14:55:23;;;;;;;;;;;;;;;;;;4998175;28;19939;-75
2023/01/19 14:57:49;;;;;;;;;;;;;;;;;;4997444;28;19943;-75
2023/01/19 15:00:16;;;;;;;;;;;;;;;;;;4996522;28;20347;-75
2023/01/19 15:02:45;;;;;;;;;;;;;;;;;;4981508;28;19962;-72
2023/01/19 15:05:11;;;;;;;;;;;;;;;;;;4979054;28;20352;-74
2023/01/19 15:07:37;;;;;;;;;;;;;;;;;;4977057;28;20011;-72
2023/01/19 15:10:03;;;;;;;;;;;;;;;;;;4976745;28;19959;-72
2023/01/19 15:12:29;;;;;;;;;;;;;;;;;;4984504;28;20518;-75
2023/01/19 15:14:54;;;;;;;;;;;;;;;;;;4990809;28;19959;-73
2023/01/19 15:17:24;;;;;;;;;;;;;;;;;;4997374;28;20041;-73
2023/01/19 15:19:50;;;;;;;;;;;;;;;;;;4994558;28;20053;-75
2023/01/19 15:22:16;;;;;;;;;;;;;;;;;;4980075;28;20059;-76
2023/01/19 15:24:42;;;;;;;;;;;;;;;;;;4976697;28;19962;-73
2023/01/19 15:27:07;;;;;;;;;;;;;;;;;;4976745;28;20426;-78
2023/01/19 15:29:33;;;;;;;;;;;;;;;;;;4975767;28;20031;-75
2023/01/19 15:32:01;;;;;;;;;;;;;;;;;;4975370;28;20413;-77
2023/01/19 15:34:26;;;;;;;;;;;;;;;;;;4976970;28;20342;-75
2023/01/19 15:36:52;;;;;;;;;;;;;;;;;;4976973;28;19961;-76
2023/01/19 15:39:19;;;;;;;;;;;;;;;;;;4980543;28;19948;-77
2023/01/19 15:41:45;;;;;;;;;;;;;;;;;;4982889;28;20085;-74
2023/01/19 15:44:11;;;;;;;;;;;;;;;;;;4976406;28;19988;-75
2023/01/19 15:46:37;;;;;;;;;;;;;;;;;;4975603;28;20014;-72
2023/01/19 15:49:04;;;;;;;;;;;;;;;;;;4991794;28;20540;-75
2023/01/19 15:51:30;;;;;;;;;;;;;;;;;;4979896;28;19994;-79
2023/01/19 15:53:56;;;;;;;;;;;;;;;;;;4994808;28;20395;-75
2023/01/19 15:56:23;;;;;;;;;;;;;;;;;;4988408;28;20050;-76
2023/01/19 15:58:49;;;;;;;;;;;;;;;;;;4980119;28;20064;-75
2023/01/19 16:01:15;;;;;;;;;;;;;;;;;;4984100;28;20450;-75
2023/01/19 16:03:41;;;;;;;;;;;;;;;;;;4995995;28;20443;-77
2023/01/19 16:06:07;;;;;;;;;;;;;;;;;;4984273;28;19967;-76
2023/01/19 16:08:32;;;;;;;;;;;;;;;;;;4976029;28;20081;-72
2023/01/19 16:10:58;;;;;;;;;;;;;;;;;;4976208;28;20037;-74
2023/01/19 16:13:24;;;;;;;;;;;;;;;;;;4974893;28;20449;-75
2023/01/19 16:15:50;;;;;;;;;;;;;;;;;;4992923;28;19955;-75
2023/01/19 16:18:16;;;;;;;;;;;;;;;;;;4995811;28;19958;-74
2023/01/19 16:20:42;;;;;;;;;;;;;;;;;;4989599;28;19959;-73
2023/01/19 16:23:08;;;;;;;;;;;;;;;;;;4975931;28;20413;-73
2023/01/19 16:25:34;;;;;;;;;;;;;;;;;;4981548;28;20009;-70
2023/01/19 16:28:00;;;;;;;;;;;;;;;;;;4989550;28;19964;-74
2023/01/19 16:30:26;;;;;;;;;;;;;;;;;;4993917;28;19954;-74
2023/01/19 16:32:52;;;;;;;;;;;;;;;;;;4995263;28;20026;-74
2023/01/19 16:35:18;;;;;;;;;;;;;;;;;;4995541;28;19946;-74
2023/01/19 16:37:44;;;;;;;;;;;;;;;;;;4995525;28;19993;-72
2023/01/19 16:40:10;;;;;;;;;;;;;;;;;;4995721;28;19984;-72
2023/01/19 16:42:36;;;;;;;;;;;;;;;;;;4995044;28;19986;-75
2023/01/19 16:45:02;;;;;;;;;;;;;;;;;;4995080;28;19975;-75